createdAt,value
2022-07-26T00:00:13.203Z,93440.53
2022-07-26T00:02:47.845Z,93445.31
2022-07-26T00:05:16.908Z,93432.72
2022-07-26T00:07:44.190Z,93442.31
2022-07-26T00:10:11.445Z,93455.09
2022-07-26T00:12:38.476Z,93444.13
2022-07-26T00:15:08.264Z,93432.97
2022-07-26T00:17:34.976Z,93448.25
2022-07-26T00:20:01.783Z,93442.78
2022-07-26T00:22:34.040Z,93441.94
2022-07-26T00:25:04.911Z,93430.63
2022-07-26T00:27:33.087Z,93414.72
2022-07-26T00:29:59.814Z,93427.97
2022-07-26T00:32:26.635Z,93435.13
2022-07-26T00:34:53.423Z,93431.91
2022-07-26T00:37:21.035Z,93448.47
2022-07-26T00:39:48.888Z,93464.25
2022-07-26T00:42:15.808Z,93443.50
2022-07-26T00:44:45.199Z,93453.38
2022-07-26T00:47:12.855Z,93456.81
2022-07-26T00:49:40.093Z,93459.38
2022-07-26T00:52:09.050Z,93462.13
2022-07-26T00:54:37.301Z,93458.31
2022-07-26T00:57:04.412Z,93467.75
2022-07-26T00:59:31.447Z,93464.69
2022-07-26T01:01:58.179Z,93439.91
2022-07-26T01:04:25.319Z,93441.72
2022-07-26T01:06:52.176Z,93445.84
2022-07-26T01:09:19.576Z,93462.34
2022-07-26T01:11:46.663Z,93463.28
2022-07-26T01:14:13.910Z,93458.44
2022-07-26T01:16:40.797Z,93452.53
2022-07-26T01:19:07.601Z,93458.41
2022-07-26T01:21:34.922Z,93464.34
2022-07-26T01:24:02.552Z,93455.25
2022-07-26T01:26:29.269Z,93452.38
2022-07-26T01:28:55.961Z,93453.34
2022-07-26T01:31:22.675Z,93458.28
2022-07-26T01:33:50.125Z,93460.00
2022-07-26T01:36:17.359Z,93460.19
2022-07-26T01:38:44.581Z,93463.09
2022-07-26T01:41:11.599Z,93464.53
2022-07-26T01:43:38.261Z,93446.34
2022-07-26T01:46:08.323Z,93439.56
2022-07-26T01:48:35.678Z,93438.50
2022-07-26T01:51:02.805Z,93448.81
2022-07-26T01:53:29.555Z,93455.31
2022-07-26T01:55:56.241Z,93455.19
2022-07-26T01:58:22.907Z,93448.50
2022-07-26T02:00:49.824Z,93448.63
2022-07-26T02:03:16.571Z,93451.63
2022-07-26T02:05:43.236Z,93453.13
2022-07-26T02:08:11.208Z,93452.91
2022-07-26T02:10:57.210Z,93448.56
2022-07-26T02:13:24.246Z,93449.19
2022-07-26T02:15:50.955Z,93436.59
2022-07-26T02:18:17.762Z,93441.50
2022-07-26T02:20:44.476Z,93439.28
2022-07-26T02:23:11.985Z,93445.41
2022-07-26T02:25:38.673Z,93455.94
2022-07-26T02:28:05.808Z,93459.38
2022-07-26T02:30:32.462Z,93451.03
2022-07-26T02:33:00.383Z,93456.47
2022-07-26T02:35:27.311Z,93454.81
2022-07-26T02:37:53.983Z,93462.53
2022-07-26T02:40:20.596Z,93459.81
2022-07-26T02:42:47.384Z,93467.00
2022-07-26T02:45:14.065Z,93442.31
2022-07-26T02:47:51.244Z,93451.38
2022-07-26T02:50:19.481Z,93449.78
2022-07-26T02:52:49.465Z,93456.91
2022-07-26T02:55:17.752Z,93450.56
2022-07-26T02:57:46.258Z,93453.22
2022-07-26T03:00:15.989Z,93467.69
2022-07-26T03:02:43.052Z,93454.06
2022-07-26T03:05:10.694Z,93440.25
2022-07-26T03:07:37.668Z,93449.56
2022-07-26T03:10:05.075Z,93443.63
2022-07-26T03:12:31.827Z,93453.34
2022-07-26T03:14:58.497Z,93454.38
2022-07-26T03:17:25.222Z,93456.88
2022-07-26T03:19:51.985Z,93428.81
2022-07-26T03:22:18.957Z,93429.75
2022-07-26T03:24:45.643Z,93439.72
2022-07-26T03:27:12.331Z,93452.84
2022-07-26T03:29:38.996Z,93443.31
2022-07-26T03:32:05.964Z,93438.59
2022-07-26T03:34:33.025Z,93426.09
2022-07-26T03:36:59.736Z,93435.56
2022-07-26T03:39:26.425Z,93435.84
2022-07-26T03:41:53.164Z,93438.88
2022-07-26T03:44:19.956Z,93427.44
2022-07-26T03:46:46.826Z,93426.81
2022-07-26T03:49:16.880Z,93417.38
2022-07-26T03:51:44.360Z,93427.38
2022-07-26T03:54:11.668Z,93425.22
2022-07-26T03:56:40.163Z,93418.88
2022-07-26T03:59:09.763Z,93411.19
2022-07-26T04:01:42.083Z,93418.31
2022-07-26T04:04:10.692Z,93426.00
2022-07-26T04:06:38.916Z,93434.09
2022-07-26T04:09:07.234Z,93443.25
2022-07-26T04:11:35.137Z,93433.38
2022-07-26T04:14:01.834Z,93426.03
2022-07-26T04:16:28.767Z,93436.53
2022-07-26T04:18:55.858Z,93447.47
2022-07-26T04:21:22.809Z,93449.63
2022-07-26T04:23:51.443Z,93450.94
2022-07-26T04:26:20.395Z,93453.84
2022-07-26T04:28:47.329Z,93469.09
2022-07-26T04:31:14.263Z,93455.00
2022-07-26T04:33:41.345Z,93460.53
2022-07-26T04:36:08.252Z,93461.78
2022-07-26T04:38:35.245Z,93450.31
2022-07-26T04:41:01.985Z,93468.59
2022-07-26T04:43:28.596Z,93460.88
2022-07-26T04:45:57.400Z,93468.28
2022-07-26T04:48:24.846Z,93468.34
2022-07-26T04:50:51.879Z,93460.78
2022-07-26T04:53:18.694Z,93466.97
2022-07-26T04:55:45.768Z,93463.81
2022-07-26T04:58:12.703Z,93470.47
2022-07-26T05:01:02.824Z,93468.19
2022-07-26T05:03:26.132Z,93456.47
2022-07-26T05:05:52.971Z,93462.94
2022-07-26T05:08:19.817Z,93470.78
2022-07-26T05:10:52.971Z,93465.38
2022-07-26T05:13:23.067Z,93482.25
2022-07-26T05:15:56.901Z,93477.88
2022-07-26T05:18:23.528Z,93463.31
2022-07-26T05:20:51.308Z,93449.97
2022-07-26T05:23:18.209Z,93469.47
2022-07-26T05:25:45.018Z,93461.28
2022-07-26T05:28:11.737Z,93475.50
2022-07-26T05:30:38.480Z,93475.13
2022-07-26T05:33:05.504Z,93464.22
2022-07-26T05:35:32.150Z,93476.50
2022-07-26T05:37:59.265Z,93470.47
2022-07-26T05:40:25.956Z,93474.50
2022-07-26T05:42:52.589Z,93484.19
2022-07-26T05:45:19.328Z,93487.72
2022-07-26T05:47:45.947Z,93484.69
2022-07-26T05:50:12.576Z,93485.19
2022-07-26T05:52:39.275Z,93491.69
2022-07-26T05:55:07.146Z,93486.00
2022-07-26T05:57:33.785Z,93484.78
2022-07-26T06:00:00.429Z,93476.75
2022-07-26T06:02:27.159Z,93486.63
2022-07-26T06:04:53.837Z,93477.84
2022-07-26T06:07:20.618Z,93482.16
2022-07-26T06:09:47.286Z,93469.16
2022-07-26T06:12:13.886Z,93474.34
2022-07-26T06:14:40.611Z,93486.22
2022-07-26T06:17:07.294Z,93475.78
2022-07-26T06:19:34.274Z,93482.91
2022-07-26T06:22:01.270Z,93469.03
2022-07-26T06:24:28.477Z,93470.44
2022-07-26T06:26:58.004Z,93468.75
2022-07-26T06:29:32.279Z,93458.38
2022-07-26T06:31:59.381Z,93459.50
2022-07-26T06:34:26.100Z,93453.88
2022-07-26T06:36:53.416Z,93466.41
2022-07-26T06:39:20.077Z,93461.22
2022-07-26T06:41:46.778Z,93469.66
2022-07-26T06:44:13.422Z,93466.00
2022-07-26T06:46:40.083Z,93468.06
2022-07-26T06:49:07.151Z,93456.66
2022-07-26T06:51:34.108Z,93460.09
2022-07-26T06:54:04.217Z,93450.41
2022-07-26T06:56:32.459Z,93430.75
2022-07-26T06:58:59.152Z,93446.97
2022-07-26T07:01:51.190Z,93451.59
2022-07-26T07:04:12.667Z,93441.00
2022-07-26T07:06:39.479Z,93442.38
2022-07-26T07:09:06.700Z,93433.00
2022-07-26T07:11:35.535Z,93449.19
2022-07-26T07:14:03.235Z,93440.16
2022-07-26T07:16:30.337Z,93440.94
2022-07-26T07:18:57.318Z,93444.47
2022-07-26T07:21:23.991Z,93441.41
2022-07-26T07:23:50.628Z,93452.75
2022-07-26T07:26:17.403Z,93432.13
2022-07-26T07:28:44.019Z,93445.72
2022-07-26T07:31:11.129Z,93442.34
2022-07-26T07:33:52.521Z,93430.75
2022-07-26T07:36:20.162Z,93434.31
2022-07-26T07:38:48.988Z,93420.91
2022-07-26T07:41:16.482Z,93416.16
2022-07-26T07:43:43.126Z,93423.16
2022-07-26T07:46:09.810Z,93422.50
2022-07-26T07:48:41.141Z,93428.00
2022-07-26T07:51:11.989Z,93426.66
2022-07-26T07:53:38.863Z,93423.84
2022-07-26T07:56:05.810Z,93421.19
2022-07-26T07:58:33.070Z,93426.47
2022-07-26T08:00:59.724Z,93423.84
2022-07-26T08:03:38.747Z,93420.91
2022-07-26T08:06:07.399Z,93424.19
2022-07-26T08:08:35.156Z,93422.31
2022-07-26T08:11:02.568Z,93423.56
2022-07-26T08:13:31.124Z,93418.44
2022-07-26T08:15:58.040Z,93428.38
2022-07-26T08:18:27.549Z,93429.53
2022-07-26T08:20:55.441Z,93428.94
2022-07-26T08:23:22.756Z,93416.03
2022-07-26T08:25:56.976Z,93431.78
2022-07-26T08:28:46.920Z,93428.59
2022-07-26T08:31:14.658Z,93425.09
2022-07-26T08:33:45.799Z,93440.09
2022-07-26T08:36:16.973Z,93427.38
2022-07-26T08:38:44.578Z,93424.22
2022-07-26T08:41:14.152Z,93440.44
2022-07-26T08:43:52.133Z,93441.66
2022-07-26T08:46:26.366Z,93443.03
2022-07-26T08:48:57.418Z,93440.16
2022-07-26T08:51:25.546Z,93431.28
2022-07-26T08:54:04.766Z,93459.19
2022-07-26T08:56:36.802Z,93443.69
2022-07-26T08:59:20.064Z,93440.63
2022-07-26T09:01:54.565Z,93450.81
2022-07-26T09:04:32.777Z,93459.44
2022-07-26T09:07:08.049Z,93461.13
2022-07-26T09:09:55.411Z,93447.94
2022-07-26T09:12:23.587Z,93452.25
2022-07-26T09:14:50.637Z,93444.31
2022-07-26T09:17:19.388Z,93447.72
2022-07-26T09:20:02.309Z,93449.47
2022-07-26T09:22:28.999Z,93442.00
2022-07-26T09:24:55.736Z,93432.25
2022-07-26T09:27:26.536Z,93406.19
2022-07-26T09:29:55.146Z,93431.56
2022-07-26T09:32:26.869Z,93428.69
2022-07-26T09:34:59.025Z,93428.72
2022-07-26T09:37:40.284Z,93445.06
2022-07-26T09:40:08.219Z,93440.53
2022-07-26T09:42:35.219Z,93427.59
2022-07-26T09:45:02.604Z,93432.44
2022-07-26T09:47:39.797Z,93443.72
2022-07-26T09:50:17.565Z,93438.88
2022-07-26T09:53:09.842Z,93449.31
2022-07-26T09:55:55.442Z,93445.34
2022-07-26T09:58:24.178Z,93445.16
2022-07-26T10:00:51.248Z,93441.66
2022-07-26T10:03:18.124Z,93418.94
2022-07-26T10:05:44.919Z,93416.28
2022-07-26T10:08:12.714Z,93426.81
2022-07-26T10:11:04.528Z,93440.81
2022-07-26T10:13:31.563Z,93435.69
2022-07-26T10:15:58.809Z,93436.72
2022-07-26T10:18:38.185Z,93428.03
2022-07-26T10:21:29.648Z,93424.06
2022-07-26T10:24:01.173Z,93431.63
2022-07-26T10:26:34.073Z,93429.22
2022-07-26T10:29:18.920Z,93421.13
2022-07-26T10:32:00.847Z,93425.97
2022-07-26T10:34:31.797Z,93430.25
2022-07-26T10:36:59.336Z,93426.91
2022-07-26T10:39:26.071Z,93420.81
2022-07-26T10:42:02.640Z,93419.75
2022-07-26T10:44:41.857Z,93424.28
2022-07-26T10:47:08.394Z,93432.47
2022-07-26T10:49:43.541Z,93428.13
2022-07-26T10:52:17.382Z,93421.16
2022-07-26T10:54:59.250Z,93421.66
2022-07-26T10:57:31.574Z,93424.91
2022-07-26T10:59:59.256Z,93411.34
2022-07-26T11:02:33.850Z,93407.34
2022-07-26T11:05:00.952Z,93420.78
2022-07-26T11:07:29.279Z,93415.16
2022-07-26T11:10:00.400Z,93407.09
2022-07-26T11:12:27.777Z,93406.03
2022-07-26T11:14:54.370Z,93408.69
2022-07-26T11:17:27.270Z,93406.47
2022-07-26T11:19:54.936Z,93411.72
2022-07-26T11:22:22.360Z,93410.34
2022-07-26T11:24:49.221Z,93406.81
2022-07-26T11:27:15.883Z,93382.19
2022-07-26T11:29:42.519Z,93396.22
2022-07-26T11:32:25.590Z,93394.63
2022-07-26T11:35:00.661Z,93381.22
2022-07-26T11:37:28.027Z,93373.66
2022-07-26T11:39:54.676Z,93385.97
2022-07-26T11:42:22.080Z,93375.56
2022-07-26T11:44:50.373Z,93380.03
2022-07-26T11:47:25.206Z,93379.88
2022-07-26T11:50:11.701Z,93377.31
2022-07-26T11:52:39.686Z,93373.28
2022-07-26T11:55:07.161Z,93369.88
2022-07-26T11:57:33.892Z,93370.22
2022-07-26T12:00:01.140Z,93361.47
2022-07-26T12:02:30.571Z,93370.88
2022-07-26T12:05:33.277Z,93375.34
2022-07-26T12:08:05.309Z,93372.44
2022-07-26T12:10:32.259Z,93348.88
2022-07-26T12:13:16.022Z,93351.56
2022-07-26T12:15:53.243Z,93355.63
2022-07-26T12:18:31.277Z,93353.25
2022-07-26T12:21:08.832Z,93346.06
2022-07-26T12:23:54.484Z,93345.47
2022-07-26T12:26:26.463Z,93341.19
2022-07-26T12:28:53.885Z,93344.25
2022-07-26T12:31:31.699Z,93336.22
2022-07-26T12:33:58.837Z,93340.28
2022-07-26T12:36:27.491Z,93335.97
2022-07-26T12:38:56.191Z,93338.69
2022-07-26T12:41:40.006Z,93345.06
2022-07-26T12:44:08.986Z,93329.56
2022-07-26T12:46:36.443Z,93329.72
2022-07-26T12:49:04.916Z,93331.41
2022-07-26T12:51:33.287Z,93334.34
2022-07-26T12:54:00.000Z,93338.97
2022-07-26T12:56:26.646Z,93329.50
2022-07-26T12:58:54.138Z,93336.19
2022-07-26T13:01:21.252Z,93340.63
2022-07-26T13:03:48.202Z,93339.06
2022-07-26T13:06:14.800Z,93338.81
2022-07-26T13:08:41.425Z,93344.47
2022-07-26T13:11:08.323Z,93336.38
2022-07-26T13:13:34.947Z,93334.72
2022-07-26T13:16:01.716Z,93329.81
2022-07-26T13:18:28.362Z,93328.56
2022-07-26T13:20:55.007Z,93333.38
2022-07-26T13:23:23.144Z,93312.28
2022-07-26T13:25:53.260Z,93310.38
2022-07-26T13:28:21.243Z,93321.25
2022-07-26T13:30:48.145Z,93325.25
2022-07-26T13:33:16.584Z,93315.63
2022-07-26T13:35:43.639Z,93311.78
2022-07-26T13:38:10.632Z,93311.66
2022-07-26T13:40:37.342Z,93312.25
2022-07-26T13:43:05.356Z,93314.22
2022-07-26T13:45:32.027Z,93301.38
2022-07-26T13:47:59.186Z,93308.47
2022-07-26T13:50:28.033Z,93308.06
2022-07-26T13:52:56.120Z,93305.56
2022-07-26T13:55:23.202Z,93308.34
2022-07-26T13:57:56.733Z,93303.75
2022-07-26T14:00:29.183Z,93299.97
2022-07-26T14:02:58.403Z,93299.69
2022-07-26T14:05:25.998Z,93297.13
2022-07-26T14:07:53.192Z,93303.53
2022-07-26T14:10:21.212Z,93307.69
2022-07-26T14:12:48.458Z,93300.19
2022-07-26T14:15:21.107Z,93291.25
2022-07-26T14:17:49.156Z,93297.06
2022-07-26T14:20:17.168Z,93295.25
2022-07-26T14:22:44.483Z,93282.31
2022-07-26T14:25:11.896Z,93305.00
2022-07-26T14:27:38.938Z,93306.50
2022-07-26T14:30:06.497Z,93310.34
2022-07-26T14:32:33.220Z,93293.59
2022-07-26T14:34:59.860Z,93302.38
2022-07-26T14:37:42.977Z,93307.44
2022-07-26T14:40:17.097Z,93303.81
2022-07-26T14:42:45.276Z,93311.84
2022-07-26T14:45:12.734Z,93302.81
2022-07-26T14:47:39.916Z,93302.28
2022-07-26T14:50:08.518Z,93303.16
2022-07-26T14:52:46.735Z,93294.81
2022-07-26T14:55:15.261Z,93294.78
2022-07-26T14:57:42.702Z,93278.75
2022-07-26T15:00:11.891Z,93289.00
2022-07-26T15:02:44.160Z,93291.22
2022-07-26T15:05:12.250Z,93282.03
2022-07-26T15:07:40.130Z,93287.94
2022-07-26T15:10:10.171Z,93287.72
2022-07-26T15:12:37.630Z,93294.25
2022-07-26T15:15:06.101Z,93280.88
2022-07-26T15:17:33.256Z,93286.78
2022-07-26T15:19:59.896Z,93282.06
2022-07-26T15:22:26.695Z,93285.75
2022-07-26T15:24:53.431Z,93279.88
2022-07-26T15:27:20.625Z,93284.53
2022-07-26T15:29:49.583Z,93267.13
2022-07-26T15:32:16.341Z,93269.03
2022-07-26T15:34:43.092Z,93283.53
2022-07-26T15:37:09.881Z,93280.53
2022-07-26T15:39:36.539Z,93270.91
2022-07-26T15:42:07.410Z,93279.16
2022-07-26T15:44:34.600Z,93276.69
2022-07-26T15:47:01.724Z,93263.59
2022-07-26T15:49:30.593Z,93272.75
2022-07-26T15:51:57.637Z,93277.09
2022-07-26T15:54:24.424Z,93275.41
2022-07-26T15:56:51.128Z,93271.38
2022-07-26T15:59:18.100Z,93271.38
2022-07-26T16:01:44.907Z,93276.13
2022-07-26T16:04:12.198Z,93273.63
2022-07-26T16:06:39.408Z,93266.78
2022-07-26T16:09:17.364Z,93275.06
2022-07-26T16:11:45.765Z,93275.16
2022-07-26T16:14:12.668Z,93267.59
2022-07-26T16:16:39.303Z,93263.44
2022-07-26T16:19:06.103Z,93270.63
2022-07-26T16:21:32.899Z,93256.84
2022-07-26T16:24:04.371Z,93272.81
2022-07-26T16:26:33.459Z,93267.16
2022-07-26T16:29:00.693Z,93245.78
2022-07-26T16:31:27.671Z,93263.09
2022-07-26T16:33:54.431Z,93259.50
2022-07-26T16:36:21.005Z,93257.63
2022-07-26T16:38:47.747Z,93256.34
2022-07-26T16:41:14.585Z,93258.53
2022-07-26T16:43:41.444Z,93259.28
2022-07-26T16:46:08.141Z,93254.72
2022-07-26T16:48:34.923Z,93248.28
2022-07-26T16:51:01.963Z,93250.66
2022-07-26T16:53:28.946Z,93244.13
2022-07-26T16:55:55.699Z,93252.66
2022-07-26T16:58:22.789Z,93258.56
2022-07-26T17:00:50.373Z,93254.97
2022-07-26T17:03:17.405Z,93236.22
2022-07-26T17:05:45.829Z,93248.94
2022-07-26T17:08:12.796Z,93249.78
2022-07-26T17:10:39.583Z,93252.44
2022-07-26T17:13:06.385Z,93240.66
2022-07-26T17:15:33.264Z,93242.63
2022-07-26T17:18:00.231Z,93251.53
2022-07-26T17:20:27.292Z,93237.00
2022-07-26T17:22:54.505Z,93259.44
2022-07-26T17:25:21.394Z,93252.31
2022-07-26T17:27:48.293Z,93243.88
2022-07-26T17:30:15.273Z,93232.50
2022-07-26T17:32:42.356Z,93238.00
2022-07-26T17:35:09.678Z,93249.34
2022-07-26T17:37:36.451Z,93246.13
2022-07-26T17:40:08.004Z,93247.22
2022-07-26T17:42:35.566Z,93250.19
2022-07-26T17:45:02.523Z,93238.63
2022-07-26T17:47:30.590Z,93249.47
2022-07-26T17:52:51.086Z,93252.44
2022-07-26T17:55:19.235Z,93254.31
2022-07-26T17:57:47.654Z,93256.50
2022-07-26T18:00:16.886Z,93257.59
2022-07-26T18:02:43.594Z,93255.97
2022-07-26T18:05:11.154Z,93255.97
2022-07-26T18:07:38.355Z,93261.94
2022-07-26T18:10:05.772Z,93260.31
2022-07-26T18:12:32.520Z,93256.78
2022-07-26T18:14:59.195Z,93258.41
2022-07-26T18:17:25.825Z,93259.75
2022-07-26T18:19:52.443Z,93268.41
2022-07-26T18:22:19.137Z,93266.25
2022-07-26T18:24:45.848Z,93254.13
2022-07-26T18:27:12.611Z,93257.09
2022-07-26T18:29:39.290Z,93247.88
2022-07-26T18:32:06.273Z,93263.56
2022-07-26T18:34:32.938Z,93250.28
2022-07-26T18:36:59.779Z,93271.09
2022-07-26T18:39:32.687Z,93268.94
2022-07-26T18:42:00.565Z,93269.22
2022-07-26T18:44:27.367Z,93264.88
2022-07-26T18:46:55.984Z,93260.84
2022-07-26T18:49:23.592Z,93264.88
2022-07-26T18:52:02.835Z,93264.88
2022-07-26T18:54:33.173Z,93272.69
2022-07-26T18:57:00.176Z,93271.38
2022-07-26T18:59:26.972Z,93275.34
2022-07-26T19:01:53.777Z,93270.22
2022-07-26T19:04:21.583Z,93275.34
2022-07-26T19:06:49.190Z,93271.84
2022-07-26T19:09:17.121Z,93274.84
2022-07-26T19:11:46.834Z,93275.91
2022-07-26T19:14:13.686Z,93273.25
2022-07-26T19:16:40.523Z,93281.03
2022-07-26T19:19:07.321Z,93282.28
2022-07-26T19:21:34.451Z,93282.00
2022-07-26T19:24:01.320Z,93279.50
2022-07-26T19:26:29.786Z,93289.75
2022-07-26T19:28:57.113Z,93296.06
2022-07-26T19:31:24.064Z,93288.94
2022-07-26T19:33:50.997Z,93295.19
2022-07-26T19:36:25.504Z,93296.78
2022-07-26T19:38:54.274Z,93297.88
2022-07-26T19:41:21.040Z,93292.66
2022-07-26T19:43:47.637Z,93309.56
2022-07-26T19:46:14.551Z,93319.06
2022-07-26T19:48:41.431Z,93296.81
2022-07-26T19:51:08.203Z,93309.25
2022-07-26T19:53:34.977Z,93318.22
2022-07-26T19:56:01.797Z,93319.22
2022-07-26T19:58:30.464Z,93311.38
2022-07-26T20:00:57.258Z,93330.97
2022-07-26T20:03:24.047Z,93323.16
2022-07-26T20:05:50.781Z,93329.00
2022-07-26T20:08:17.541Z,93336.28
2022-07-26T20:10:44.238Z,93341.56
2022-07-26T20:13:10.941Z,93342.16
2022-07-26T20:15:37.723Z,93336.84
2022-07-26T20:18:04.631Z,93331.63
2022-07-26T20:20:31.546Z,93332.06
2022-07-26T20:22:58.452Z,93335.91
2022-07-26T20:25:25.300Z,93328.56
2022-07-26T20:27:52.912Z,93332.34
2022-07-26T20:30:20.119Z,93333.34
2022-07-26T20:32:46.815Z,93325.75
2022-07-26T20:35:13.461Z,93326.81
2022-07-26T20:37:41.705Z,93314.09
2022-07-26T20:40:09.972Z,93337.31
2022-07-26T20:42:40.414Z,93340.72
2022-07-26T20:45:11.470Z,93321.16
2022-07-26T20:47:40.558Z,93318.91
2022-07-26T20:50:09.469Z,93325.34
2022-07-26T20:52:36.652Z,93330.50
2022-07-26T20:55:04.169Z,93325.53
2022-07-26T20:57:31.087Z,93337.94
2022-07-26T20:59:57.950Z,93318.78
2022-07-26T21:02:24.822Z,93335.94
2022-07-26T21:04:51.689Z,93330.16
2022-07-26T21:07:18.852Z,93336.50
2022-07-26T21:09:45.481Z,93331.63
2022-07-26T21:12:12.338Z,93326.28
2022-07-26T21:14:39.286Z,93326.97
2022-07-26T21:17:11.284Z,93332.63
2022-07-26T21:19:39.327Z,93327.63
2022-07-26T21:22:06.586Z,93329.63
2022-07-26T21:24:34.930Z,93325.97
2022-07-26T21:27:03.075Z,93326.59
2022-07-26T21:29:30.016Z,93334.66
2022-07-26T21:31:56.968Z,93334.72
2022-07-26T21:34:26.788Z,93331.16
2022-07-26T21:36:54.169Z,93335.41
2022-07-26T21:39:20.999Z,93346.13
2022-07-26T21:41:48.893Z,93343.25
2022-07-26T21:44:15.711Z,93332.00
2022-07-26T21:46:42.393Z,93341.09
2022-07-26T21:49:09.627Z,93344.81
2022-07-26T21:51:36.580Z,93346.59
2022-07-26T21:54:03.566Z,93349.81
2022-07-26T21:56:30.200Z,93351.75
2022-07-26T21:58:57.064Z,93352.22
2022-07-26T22:01:23.812Z,93345.03
2022-07-26T22:03:50.420Z,93354.94
2022-07-26T22:06:17.149Z,93346.59
2022-07-26T22:08:44.153Z,93356.03
2022-07-26T22:11:11.187Z,93358.25
2022-07-26T22:14:17.416Z,93355.38
2022-07-26T22:16:47.491Z,93341.16
2022-07-26T22:19:14.561Z,93357.13
2022-07-26T22:21:41.260Z,93351.66
2022-07-26T22:24:08.087Z,93365.44
2022-07-26T22:26:34.813Z,93360.09
2022-07-26T22:29:01.675Z,93360.72
2022-07-26T22:31:28.463Z,93351.56
2022-07-26T22:33:55.172Z,93356.63
2022-07-26T22:36:21.924Z,93356.75
2022-07-26T22:38:49.393Z,93365.88
2022-07-26T22:41:16.284Z,93348.44
2022-07-26T22:43:42.948Z,93346.63
2022-07-26T22:46:10.100Z,93354.47
2022-07-26T22:48:38.544Z,93344.44
2022-07-26T22:51:05.651Z,93350.28
2022-07-26T22:53:32.487Z,93355.78
2022-07-26T22:55:59.197Z,93353.78
2022-07-26T22:58:25.875Z,93345.28
2022-07-26T23:00:53.809Z,93353.09
2022-07-26T23:03:21.853Z,93359.97
2022-07-26T23:05:50.591Z,93358.72
2022-07-26T23:11:06.981Z,93358.97
2022-07-26T23:13:34.217Z,93344.03
2022-07-26T23:16:01.983Z,93331.72
2022-07-26T23:18:30.239Z,93342.38
2022-07-26T23:20:57.237Z,93348.94
2022-07-26T23:23:29.139Z,93352.91
2022-07-26T23:25:57.793Z,93347.91
2022-07-26T23:28:24.762Z,93335.59
2022-07-26T23:31:03.714Z,93338.19
2022-07-26T23:33:51.329Z,93335.44
2022-07-26T23:36:17.009Z,93352.69
2022-07-26T23:38:43.679Z,93335.97
2022-07-26T23:49:23.541Z,93344.53
2022-07-26T23:51:50.566Z,93342.47
2022-07-26T23:54:17.312Z,93353.06
2022-07-26T23:57:14.808Z,93348.16
2022-07-26T23:59:41.396Z,93346.06
